Terminal Aerodrome Forecast
Issued by NWS Jacksonville, FL

Home | Current Version | Previous Version | Text Only | Print | Product List | Glossary On
Versions: 1 2 3 4 5 6 7 8 9 10 11 12 13 14 15
345
FTUS42 KJAX 231729
TAFGNV
TAF
KGNV 231729Z 2318/2418 06012G20KT P6SM VCSH BKN035 OVC050
     FM240100 05009G15KT P6SM SCT025 BKN070
     FM241500 10012G18KT P6SM BKN050=

USA.gov is the U.S. government's official web portal to all federal, state and local government web resources and services.